Los Altos, California
Current Conditions -  °F | °C
As of 1:56 PM on Saturday 20 Dec 2014 (Local Time) from KNUQ Reporting Station
Overcast Overcast  
Wind Chill: 61°   Ceiling: 6000
Heat Index: 61°   Visibility: 10mi
Dew Point: 53°   Wind: 3mph
Humidity: 75%   Direction: 30°NNE
Pressure: 30.2"   Gusts: NA
Location:  37.38°N, 122.11°W
Report Text: KNUQ 202156Z 03003KT 10SM OVC060 16/12 A3020 RMK AO2 SLP230 T01610117
Loading
Personal Weather Stations






























Interactive Weather Map New forecast layout! Learn more

10-Day Weather Forecast

Advertisements
Track Severe Weather on mobile